Time;durP1;ratioP1;P1;durP2;ratioP2;P2;SDS_P1;SDS_P2;PMS_P1;PMS_P2;Temp;Humidity;BMP_temperature;BMP_pressure;BME280_temperature;BME280_humidity;BME280_pressure;Samples;Min_cycle;Max_cycle;Signal;HPM_P1;HPM_P2
2023/10/01 00:00:10;;;;;;;16.70;6.90;;;;;;;10.91;100.00;99938.95;271002;1269;231548;-84
2023/10/01 00:07:37;;;;;;;8.30;6.00;;;;;;;10.77;100.00;99940.56;273907;1275;22180;-84
2023/10/01 00:13:47;;;;;;;11.90;6.50;;;;;;;10.63;100.00;99940.27;273954;1260;22230;-84
2023/10/01 00:20:22;;;;;;;10.50;6.40;;;;;;;10.52;100.00;99940.53;273624;1270;22273;-84
2023/10/01 00:27:43;;;;;;;9.30;6.30;;;;;;;10.39;100.00;99936.11;273974;1271;22398;-83
2023/10/01 00:34:25;;;;;;;9.60;5.70;;;;;;;10.28;100.00;99931.27;269928;1276;23276;-84
2023/10/01 00:40:28;;;;;;;9.00;5.50;;;;;;;10.11;100.00;99923.31;271768;1269;22533;-84
2023/10/01 00:46:31;;;;;;;10.60;5.90;;;;;;;10.07;100.00;99922.95;271215;1270;22207;-84
2023/10/01 00:53:19;;;;;;;8.50;6.40;;;;;;;9.95;100.00;99922.14;273731;1269;22950;-84
2023/10/01 00:59:43;;;;;;;7.30;5.30;;;;;;;9.82;100.00;99916.74;273809;1275;22217;-84
2023/10/01 01:06:36;;;;;;;10.40;6.20;;;;;;;9.71;100.00;99910.98;273871;1269;22195;-84
2023/10/01 01:12:54;;;;;;;14.80;6.10;;;;;;;9.64;100.00;99912.89;272044;1270;22564;-84
2023/10/01 01:18:57;;;;;;;8.40;5.80;;;;;;;9.60;100.00;99916.44;271771;1260;22440;-84
2023/10/01 01:25:25;;;;;;;10.30;6.20;;;;;;;9.65;100.00;99916.80;272394;1267;22925;-84
2023/10/01 01:31:45;;;;;;;16.40;6.20;;;;;;;9.58;100.00;99917.23;273689;1270;22225;-84
2023/10/01 01:37:47;;;;;;;9.00;6.00;;;;;;;9.62;100.00;99907.05;273577;1270;22528;-84
2023/10/01 01:44:33;;;;;;;8.50;4.90;;;;;;;9.64;100.00;99898.27;271307;1269;22204;-84
2023/10/01 01:51:20;;;;;;;10.30;5.70;;;;;;;9.54;100.00;99906.01;273500;1270;22450;-84
2023/10/01 01:58:24;;;;;;;7.70;4.40;;;;;;;9.52;100.00;99910.64;273685;1268;22267;-84
2023/10/01 02:05:29;;;;;;;7.70;4.40;;;;;;;9.54;100.00;99910.41;273496;1269;22371;-84
2023/10/01 02:12:23;;;;;;;7.70;4.80;;;;;;;9.49;100.00;99907.50;273995;1270;22199;-84
2023/10/01 02:18:56;;;;;;;6.40;3.50;;;;;;;9.33;100.00;99908.77;273652;1269;22196;-84
2023/10/01 02:25:45;;;;;;;6.20;4.20;;;;;;;9.17;100.00;99912.46;273752;1275;22964;-84
2023/10/01 02:32:14;;;;;;;6.10;3.90;;;;;;;9.10;100.00;99904.36;273936;1269;22205;-84
2023/10/01 02:38:43;;;;;;;;;;;;;;;8.99;100.00;99900.35;273933;1270;23220;-84
2023/10/01 02:45:51;;;;;;;5.90;3.90;;;;;;;8.92;100.00;99891.15;273605;1269;22422;-84
2023/10/01 02:52:17;;;;;;;7.20;3.40;;;;;;;8.88;100.00;99888.45;273649;1276;22906;-84
2023/10/01 02:58:20;;;;;;;5.30;3.70;;;;;;;8.85;100.00;99883.04;273393;1273;22185;-84
2023/10/01 03:04:50;;;;;;;4.90;3.90;;;;;;;8.87;100.00;99887.19;273408;1269;22202;-84
2023/10/01 03:10:56;;;;;;;6.40;4.40;;;;;;;8.87;100.00;99895.45;273395;1269;22188;-84
2023/10/01 03:17:18;;;;;;;7.40;4.50;;;;;;;8.90;100.00;99903.10;273672;1269;22173;-84
2023/10/01 03:30:21;;;;;;;5.50;4.10;;;;;;;8.96;100.00;99900.54;273475;1269;22197;-84
2023/10/01 03:37:19;;;;;;;6.50;4.20;;;;;;;8.95;100.00;99906.86;273631;1269;22294;-84
2023/10/01 03:43:35;;;;;;;5.70;4.00;;;;;;;8.91;100.00;99894.96;273626;1269;22201;-84
2023/10/01 03:49:44;;;;;;;7.10;4.20;;;;;;;8.96;100.00;99892.92;273747;1269;22309;-84
2023/10/01 03:55:46;;;;;;;6.30;4.60;;;;;;;9.06;100.00;99898.47;273985;1272;22983;-85
2023/10/01 04:02:46;;;;;;;7.60;4.60;;;;;;;9.11;100.00;99899.65;273876;1269;22182;-84
2023/10/01 04:09:26;;;;;;;8.50;4.60;;;;;;;9.18;100.00;99893.29;273635;1269;24052;-86
2023/10/01 04:15:31;;;;;;;11.50;4.80;;;;;;;9.16;100.00;99887.85;273892;1270;22440;-84
2023/10/01 04:21:36;;;;;;;10.40;5.30;;;;;;;9.09;100.00;99888.02;273981;1272;23832;-84
2023/10/01 04:36:10;;;;;;;7.40;4.60;;;;;;;9.09;100.00;99894.34;273857;1269;22367;-84
2023/10/01 04:42:45;;;;;;;9.40;5.50;;;;;;;9.11;100.00;99895.98;273848;1269;22939;-84
2023/10/01 04:49:41;;;;;;;9.60;5.20;;;;;;;9.21;100.00;99892.46;273657;1269;22327;-84
2023/10/01 04:56:10;;;;;;;11.40;5.00;;;;;;;9.31;100.00;99895.42;274001;1269;22157;-85
2023/10/01 05:02:21;;;;;;;8.90;4.80;;;;;;;9.39;100.00;99910.27;273945;1272;22236;-84
2023/10/01 05:08:23;;;;;;;8.70;5.50;;;;;;;9.43;100.00;99919.98;274028;1272;22181;-84
2023/10/01 05:14:29;;;;;;;9.20;4.60;;;;;;;9.45;100.00;99923.17;273924;1269;22211;-84
2023/10/01 05:20:34;;;;;;;8.60;5.20;;;;;;;9.51;100.00;99925.45;273820;1268;22362;-84
2023/10/01 05:26:38;;;;;;;9.00;4.80;;;;;;;9.47;100.00;99918.39;273966;1269;22264;-86
2023/10/01 05:32:51;;;;;;;7.60;5.10;;;;;;;9.49;100.00;99923.45;273120;1272;22272;-84
2023/10/01 05:39:57;;;;;;;7.20;4.70;;;;;;;9.58;100.00;99930.28;273227;1269;22282;-84
2023/10/01 05:46:40;;;;;;;10.20;5.70;;;;;;;9.64;100.00;99916.59;273937;1272;23365;-84
2023/10/01 05:53:22;;;;;;;13.10;5.30;;;;;;;9.61;100.00;99917.07;273768;1269;22941;-84
2023/10/01 06:00:27;;;;;;;;;;;;;;;;;;;;;
2023/10/01 06:06:51;;;;;;;10.40;4.80;;;;;;;9.75;100.00;99930.62;271050;1268;23658;-85
2023/10/01 06:12:56;;;;;;;13.60;4.90;;;;;;;9.79;100.00;99941.21;270809;1269;22513;-84
2023/10/01 06:19:40;;;;;;;9.80;4.90;;;;;;;9.85;100.00;99943.66;273728;1269;22288;-85
2023/10/01 06:25:58;;;;;;;9.40;5.40;;;;;;;9.92;100.00;99958.54;273960;1269;22218;-85
2023/10/01 06:32:02;;;;;;;9.20;5.50;;;;;;;9.93;100.00;99957.23;271212;1269;22543;-85
2023/10/01 06:38:04;;;;;;;13.00;6.90;;;;;;;9.93;100.00;99950.27;271413;1269;24845;-87
2023/10/01 06:44:50;;;;;;;11.30;6.70;;;;;;;9.93;100.00;99941.69;271728;1269;23358;-84
2023/10/01 06:50:53;;;;;;;12.70;6.70;;;;;;;10.03;100.00;99944.73;270922;1269;23442;-86
2023/10/01 06:57:53;;;;;;;14.30;6.80;;;;;;;10.16;100.00;99951.19;273799;1268;23460;-85
2023/10/01 07:04:31;;;;;;;14.80;7.30;;;;;;;10.27;100.00;99959.62;273726;1269;22647;-85
2023/10/01 07:10:50;;;;;;;16.30;6.80;;;;;;;10.34;100.00;99962.87;273622;1268;23061;-86
2023/10/01 07:17:15;;;;;;;13.30;5.90;;;;;;;10.43;100.00;99959.70;273442;1269;23803;-84
2023/10/01 07:24:00;;;;;;;13.70;6.70;;;;;;;10.60;100.00;99952.95;274070;1258;22210;-84
2023/10/01 07:30:46;;;;;;;11.00;6.10;;;;;;;10.79;100.00;99958.84;273877;1260;22268;-84
2023/10/01 07:36:49;;;;;;;17.10;6.00;;;;;;;10.98;100.00;99959.39;273753;1268;22393;-83
2023/10/01 07:42:56;;;;;;;9.40;5.20;;;;;;;11.14;100.00;99964.56;273719;1269;22337;-84
2023/10/01 07:49:49;;;;;;;8.50;5.50;;;;;;;11.28;100.00;99962.98;273704;1269;22447;-84
2023/10/01 07:55:53;;;;;;;9.40;5.30;;;;;;;11.39;100.00;99949.55;273960;1269;22233;-84
2023/10/01 08:03:27;;;;;;;9.00;5.00;;;;;;;11.50;100.00;99945.81;273930;1270;22381;-84
2023/10/01 08:09:40;;;;;;;11.50;5.10;;;;;;;11.66;100.00;99936.41;273547;1268;22494;-84
2023/10/01 08:15:58;;;;;;;12.50;4.80;;;;;;;11.81;100.00;99933.70;273481;1268;22382;-84
2023/10/01 08:38:15;;;;;;;16.30;5.30;;;;;;;12.40;100.00;99931.88;273953;1269;22180;-83
2023/10/01 08:44:54;;;;;;;8.00;4.60;;;;;;;12.62;100.00;99940.36;273948;1269;22137;-84
2023/10/01 08:51:38;;;;;;;17.30;7.20;;;;;;;12.89;100.00;99939.89;273722;1267;22396;-83
2023/10/01 09:04:55;;;;;;;;;;;;;;;;;;;;;
2023/10/01 09:11:14;;;;;;;12.70;5.00;;;;;;;13.13;100.00;99946.91;273514;1269;23210;-84
2023/10/01 09:18:37;;;;;;;13.00;5.50;;;;;;;13.39;100.00;99944.17;273099;1269;23446;-84
2023/10/01 09:25:19;;;;;;;12.10;5.20;;;;;;;13.88;100.00;99939.89;273459;1270;22199;-84
2023/10/01 09:32:19;;;;;;;9.00;4.60;;;;;;;14.31;100.00;99935.23;273392;1269;23761;-84
2023/10/01 09:39:22;;;;;;;11.30;4.30;;;;;;;15.11;100.00;99930.23;273868;1275;22170;-83
2023/10/01 09:46:06;;;;;;;11.90;4.60;;;;;;;15.90;100.00;99926.35;273809;1269;22169;-84
2023/10/01 09:52:30;;;;;;;10.30;4.50;;;;;;;16.19;100.00;99921.41;273875;1269;22195;-83
2023/10/01 09:58:33;;;;;;;11.70;4.10;;;;;;;16.49;100.00;99914.02;273562;1268;22161;-83
2023/10/01 10:04:55;;;;;;;10.10;3.40;;;;;;;16.39;100.00;99908.14;273979;1269;22223;-83
2023/10/01 10:11:24;;;;;;;9.90;4.20;;;;;;;16.23;100.00;99910.30;273911;1269;22207;-82
2023/10/01 10:18:15;;;;;;;12.10;4.30;;;;;;;16.15;100.00;99908.05;272463;1269;22216;-82
2023/10/01 10:25:16;;;;;;;6.30;3.10;;;;;;;16.09;100.00;99908.05;273750;1270;22355;-83
2023/10/01 10:32:09;;;;;;;12.80;4.10;;;;;;;16.07;100.00;99908.27;271100;1269;22549;-83
2023/10/01 10:39:35;;;;;;;13.20;3.70;;;;;;;16.09;100.00;99905.59;273759;1266;23294;-83
2023/10/01 10:46:14;;;;;;;12.60;3.70;;;;;;;16.19;100.00;99900.89;273770;1269;22183;-83
2023/10/01 10:52:41;;;;;;;11.50;3.90;;;;;;;16.38;100.00;99906.38;273522;1269;22187;-83
2023/10/01 10:58:43;;;;;;;9.20;3.20;;;;;;;16.55;100.00;99903.52;273855;1273;22183;-82
2023/10/01 11:04:45;;;;;;;10.20;3.30;;;;;;;16.85;100.00;99901.89;273883;1270;22361;-83
2023/10/01 11:11:10;;;;;;;12.60;3.80;;;;;;;17.13;100.00;99901.17;273985;1269;22131;-83
2023/10/01 11:17:56;;;;;;;8.00;3.20;;;;;;;17.30;100.00;99892.21;274083;1272;22922;-82
2023/10/01 11:24:00;;;;;;;8.40;3.30;;;;;;;17.35;100.00;99892.92;273899;1270;22238;-83
2023/10/01 11:30:12;;;;;;;9.30;3.00;;;;;;;17.21;100.00;99891.29;273078;1269;22562;-83
2023/10/01 11:36:14;;;;;;;7.10;2.80;;;;;;;17.16;100.00;99884.17;271604;1266;22411;-83
2023/10/01 11:42:52;;;;;;;12.10;2.80;;;;;;;17.24;100.00;99877.67;273851;1269;23383;-82
2023/10/01 11:49:15;;;;;;;14.00;2.80;;;;;;;17.30;100.00;99872.21;273949;1269;22207;-82
2023/10/01 11:55:42;;;;;;;8.50;2.60;;;;;;;17.16;100.00;99868.52;274075;1269;22810;-83
2023/10/01 12:02:20;;;;;;;8.80;2.50;;;;;;;17.04;100.00;99863.64;269819;1275;5375736;-82
2023/10/01 12:08:35;;;;;;;7.20;2.10;;;;;;;17.03;100.00;99851.08;274014;1272;22269;-82
2023/10/01 12:22:06;;;;;;;7.80;2.40;;;;;;;16.95;100.00;99849.58;273981;1272;22179;-83
2023/10/01 12:28:28;;;;;;;;;;;;;;;16.88;100.00;99845.02;273737;1263;22388;-83
2023/10/01 12:35:20;;;;;;;8.30;2.30;;;;;;;16.88;100.00;99849.75;273982;1266;22235;-82
2023/10/01 12:41:47;;;;;;;9.10;2.00;;;;;;;16.95;100.00;99846.66;273781;1269;22177;-82
2023/10/01 12:48:09;;;;;;;10.60;2.30;;;;;;;17.01;100.00;99841.27;272560;1269;22555;-83
2023/10/01 12:54:11;;;;;;;7.90;2.20;;;;;;;17.01;100.00;99839.77;272901;1268;22255;-82
2023/10/01 13:00:44;;;;;;;7.60;2.40;;;;;;;17.05;100.00;99837.48;271228;1270;22276;-83
2023/10/01 13:06:47;;;;;;;7.30;2.40;;;;;;;16.97;100.00;99831.96;271877;1269;22213;-83
2023/10/01 13:13:11;;;;;;;9.10;2.20;;;;;;;16.92;100.00;99831.48;271226;1269;23076;-83
2023/10/01 13:19:17;;;;;;;9.10;2.80;;;;;;;16.84;100.00;99838.85;271063;1269;22610;-83
2023/10/01 13:26:06;;;;;;;7.50;2.30;;;;;;;16.79;99.94;99837.73;272899;1269;22291;-82
2023/10/01 13:32:32;;;;;;;9.10;2.40;;;;;;;16.78;99.98;99831.26;270748;1267;22518;-83
2023/10/01 14:11:01;;;;;;;9.00;2.00;;;;;;;16.54;98.13;99777.02;273722;1269;22199;-83
2023/10/01 14:18:08;;;;;;;9.70;2.50;;;;;;;16.60;97.59;99781.68;273575;1269;22374;-83
2023/10/01 14:24:21;;;;;;;7.00;2.30;;;;;;;16.58;97.26;99788.63;272648;1269;22409;-83
2023/10/01 14:31:05;;;;;;;9.90;2.30;;;;;;;16.50;97.65;99795.19;272218;1269;22370;-82
2023/10/01 14:37:16;;;;;;;7.00;2.30;;;;;;;16.46;96.98;99790.61;273501;1269;22306;-83
2023/10/01 14:44:07;;;;;;;;;;;;;;;;;;;;;
2023/10/01 14:51:18;;;;;;;7.80;2.50;;;;;;;16.35;96.30;99790.95;273475;1269;22220;-83
2023/10/01 14:57:20;;;;;;;8.90;3.00;;;;;;;16.31;96.05;99791.03;273894;1275;23430;-83
2023/10/01 15:03:42;;;;;;;9.10;2.50;;;;;;;16.23;96.16;99790.95;273761;1269;22911;-82
2023/10/01 15:09:43;;;;;;;10.90;2.80;;;;;;;16.10;96.31;99794.25;273505;1273;22541;-83
2023/10/01 15:15:45;;;;;;;9.00;2.80;;;;;;;16.00;96.54;99788.63;272658;1271;22514;-83
2023/10/01 15:22:43;;;;;;;13.20;2.60;;;;;;;15.95;97.11;99786.65;273615;1269;22397;-83
2023/10/01 15:29:37;;;;;;;11.00;2.50;;;;;;;15.83;96.45;99780.08;273580;1269;23211;-83
2023/10/01 15:35:48;;;;;;;8.90;2.70;;;;;;;15.80;96.53;99774.08;272208;1269;24236;-83
2023/10/01 15:42:37;;;;;;;6.90;2.20;;;;;;;15.74;96.34;99785.34;271492;1269;22543;-82
2023/10/01 15:48:48;;;;;;;7.40;2.70;;;;;;;15.64;96.68;99791.62;271076;1270;23589;-83
2023/10/01 15:54:52;;;;;;;9.40;2.30;;;;;;;15.51;96.82;99784.48;271676;1269;22193;-83
2023/10/01 16:01:23;;;;;;;11.40;3.20;;;;;;;15.40;97.22;99793.64;272059;1269;22070;-83
2023/10/01 16:07:35;;;;;;;12.10;2.80;;;;;;;15.28;97.24;99791.42;273547;1268;22766;-86
2023/10/01 16:13:36;;;;;;;9.60;2.90;;;;;;;15.10;97.50;99788.11;273393;1269;22213;-83
2023/10/01 16:19:59;;;;;;;10.10;3.20;;;;;;;14.96;97.85;99778.41;273798;1269;22172;-83
2023/10/01 16:26:28;;;;;;;23.10;10.50;;;;;;;14.80;98.20;99780.68;273753;1270;22256;-82
2023/10/01 16:32:51;;;;;;;18.80;5.90;;;;;;;14.58;98.73;99777.14;273722;1269;22409;-83
2023/10/01 16:38:54;;;;;;;9.70;4.20;;;;;;;14.30;98.95;99774.30;273302;1270;22401;-82
2023/10/01 16:44:57;;;;;;;18.30;6.30;;;;;;;14.04;99.54;99777.67;271334;1267;22629;-84
2023/10/01 16:51:45;;;;;;;13.30;4.90;;;;;;;13.91;100.00;99781.09;273852;1270;22281;-82
2023/10/01 16:58:11;;;;;;;8.10;4.00;;;;;;;13.72;100.00;99793.77;273492;1269;22544;-83
2023/10/01 17:04:51;;;;;;;10.60;4.30;;;;;;;13.53;100.00;99793.56;271416;1266;23628;-82
2023/10/01 17:11:04;;;;;;;9.70;3.80;;;;;;;13.38;100.00;99793.05;270720;1269;22541;-82
2023/10/01 17:17:06;;;;;;;9.50;3.50;;;;;;;13.27;100.00;99795.27;270516;1270;23450;-83
2023/10/01 17:23:11;;;;;;;11.00;3.30;;;;;;;13.15;100.00;99795.88;272956;1268;22589;-84
2023/10/01 17:29:19;;;;;;;9.60;3.30;;;;;;;13.03;100.00;99798.02;270623;1270;22537;-82
2023/10/01 17:35:22;;;;;;;6.70;3.10;;;;;;;12.95;100.00;99806.20;270519;1270;22521;-82
2023/10/01 17:41:28;;;;;;;10.60;3.20;;;;;;;12.88;100.00;99811.58;270751;1269;24212;-83
2023/10/01 17:48:10;;;;;;;13.00;4.10;;;;;;;12.82;100.00;99814.62;270358;1269;22577;-82
2023/10/01 17:55:22;;;;;;;9.50;3.90;;;;;;;12.75;100.00;99815.94;271228;1269;23041;-82
2023/10/01 18:02:05;;;;;;;5.10;2.70;;;;;;;12.61;100.00;99813.67;273657;1270;22206;-82
2023/10/01 18:08:51;;;;;;;8.60;3.70;;;;;;;12.40;100.00;99814.58;264877;1269;10001587;-82
2023/10/01 18:23:01;;;;;;;19.00;9.40;;;;;;;12.05;100.00;99817.27;273514;1269;22196;-83
2023/10/01 18:29:24;;;;;;;21.50;13.30;;;;;;;11.93;100.00;99818.30;273448;1269;22335;-83
2023/10/01 18:36:18;;;;;;;26.80;15.50;;;;;;;11.84;100.00;99818.21;272210;1270;23820;-83
2023/10/01 18:42:36;;;;;;;29.10;17.80;;;;;;;11.75;100.00;99816.70;273629;1276;22185;-83
2023/10/01 18:48:38;;;;;;;24.20;12.50;;;;;;;11.67;100.00;99822.97;273167;1258;22215;-82
2023/10/01 18:55:00;;;;;;;18.30;9.00;;;;;;;11.62;100.00;99826.06;273455;1271;23084;-83
2023/10/01 19:01:12;;;;;;;15.90;7.90;;;;;;;11.57;100.00;99830.48;271638;1269;22536;-83
2023/10/01 19:08:15;;;;;;;14.70;6.50;;;;;;;11.51;100.00;99827.73;270041;1265;22570;-83
2023/10/01 19:14:38;;;;;;;15.10;6.60;;;;;;;11.39;100.00;99830.43;271880;1261;23728;-83
2023/10/01 19:21:35;;;;;;;11.10;6.00;;;;;;;11.29;100.00;99837.03;271456;1269;22450;-83
2023/10/01 19:27:59;;;;;;;;;;;;;;;11.16;100.00;99832.68;273848;1270;24147;-83
2023/10/01 19:34:32;;;;;;;10.80;5.30;;;;;;;11.07;100.00;99832.64;273896;1270;23310;-83
2023/10/01 19:40:34;;;;;;;12.70;6.10;;;;;;;10.98;100.00;99844.27;273596;1276;22928;-83
2023/10/01 19:46:36;;;;;;;10.90;5.90;;;;;;;10.95;100.00;99847.86;273650;1270;22212;-83
2023/10/01 19:52:38;;;;;;;10.90;5.30;;;;;;;10.89;100.00;99843.20;273767;1254;22568;-83
2023/10/01 19:59:13;;;;;;;9.90;4.90;;;;;;;10.81;100.00;99841.50;273554;1269;22279;-83
2023/10/01 20:05:25;;;;;;;15.00;5.10;;;;;;;10.73;100.00;99838.59;273609;1267;22196;-85
2023/10/01 20:11:58;;;;;;;12.60;5.50;;;;;;;10.71;100.00;99840.71;273683;1270;22187;-82
2023/10/01 20:18:21;;;;;;;9.40;5.30;;;;;;;10.68;100.00;99843.06;273540;1269;22461;-84
2023/10/01 20:24:43;;;;;;;8.60;5.00;;;;;;;10.66;100.00;99838.01;273914;1268;23664;-82
2023/10/01 20:31:11;;;;;;;8.90;5.30;;;;;;;10.60;100.00;99841.23;273802;1269;22294;-82
2023/10/01 20:37:36;;;;;;;;;;;;;;;10.57;100.00;99840.39;274001;1275;22372;-82
2023/10/01 20:44:14;;;;;;;14.10;5.80;;;;;;;10.53;100.00;99839.74;273942;1267;22359;-82
2023/10/01 20:50:54;;;;;;;8.90;5.50;;;;;;;10.43;100.00;99835.81;273789;1270;23211;-83
2023/10/01 20:56:57;;;;;;;12.40;5.80;;;;;;;10.28;100.00;99834.40;273709;1269;22235;-83
2023/10/01 21:03:00;;;;;;;10.40;4.40;;;;;;;10.19;100.00;99841.92;273861;1269;22242;-82
2023/10/01 21:09:22;;;;;;;10.50;5.30;;;;;;;10.13;100.00;99841.90;273948;1274;22224;-82
2023/10/01 21:15:24;;;;;;;12.10;6.20;;;;;;;10.11;100.00;99837.79;273623;1253;22375;-82
2023/10/01 21:21:30;;;;;;;10.70;4.80;;;;;;;10.08;100.00;99830.59;272453;1269;25077;-82
2023/10/01 21:27:33;;;;;;;14.80;5.40;;;;;;;10.06;100.00;99828.73;270522;1269;26268;-82
2023/10/01 21:33:38;;;;;;;11.50;5.60;;;;;;;10.06;100.00;99829.42;270551;1269;22520;-82
2023/10/01 21:39:40;;;;;;;14.20;5.90;;;;;;;10.08;100.00;99832.30;273864;1269;22185;-82
2023/10/01 21:45:58;;;;;;;14.70;4.90;;;;;;;10.03;100.00;99836.08;271868;1268;23785;-84
2023/10/01 21:53:43;;;;;;;;;;;;;;;;;;;;;
2023/10/01 22:06:51;;;;;;;10.50;5.60;;;;;;;9.89;100.00;99818.03;273751;1276;22236;-82
2023/10/01 22:12:52;;;;;;;9.10;4.80;;;;;;;9.85;100.00;99814.09;273752;1269;22453;-83
2023/10/01 22:19:02;;;;;;;7.30;4.30;;;;;;;9.79;100.00;99812.30;273932;1269;22163;-83
2023/10/01 22:26:18;;;;;;;8.20;4.90;;;;;;;9.73;100.00;99819.55;273096;1272;22233;-82
2023/10/01 22:32:42;;;;;;;11.60;5.30;;;;;;;9.64;100.00;99822.52;273040;1272;22251;-82
2023/10/01 22:39:13;;;;;;;10.70;5.40;;;;;;;9.51;100.00;99819.11;273154;1273;22279;-82
2023/10/01 22:45:57;;;;;;;8.30;5.10;;;;;;;9.35;100.00;99827.76;272499;1268;22608;-83
2023/10/01 22:52:30;;;;;;;8.30;4.70;;;;;;;9.27;100.00;99834.40;271380;1272;22295;-83
2023/10/01 22:59:04;;;;;;;12.60;5.10;;;;;;;9.19;100.00;99842.61;274028;1269;22190;-83
2023/10/01 23:05:11;;;;;;;9.20;4.80;;;;;;;9.12;100.00;99849.64;273884;1269;22198;-82
2023/10/01 23:11:35;;;;;;;12.80;5.20;;;;;;;9.11;100.00;99855.55;273735;1269;22191;-83
2023/10/01 23:18:23;;;;;;;10.70;5.00;;;;;;;9.18;100.00;99851.79;273927;1269;22239;-82
2023/10/01 23:25:06;;;;;;;9.40;5.90;;;;;;;9.25;100.00;99849.25;273778;1269;22165;-83
2023/10/01 23:31:28;;;;;;;9.50;5.40;;;;;;;9.31;100.00;99852.16;273968;1269;22897;-82
2023/10/01 23:37:51;;;;;;;14.10;5.50;;;;;;;9.36;100.00;99849.19;273843;1266;22197;-82
2023/10/01 23:44:24;;;;;;;12.00;5.30;;;;;;;9.41;100.00;99848.48;273642;1269;22395;-82
2023/10/01 23:50:29;;;;;;;8.90;4.90;;;;;;;9.49;100.00;99846.22;273699;1269;22523;-83
2023/10/01 23:56:53;;;;;;;14.40;5.50;;;;;;;9.59;100.00;99847.83;273697;1269;23085;-83
